sensor_id;sensor_type;location;lat;lon;timestamp;P1;durP1;ratioP1;P2;durP2;ratioP2
12222;SDS011;6174;49.058;8.524;2022-07-29T00:01:42;3.87;;;3.47;;
12222;SDS011;6174;49.058;8.524;2022-07-29T00:04:09;3.50;;;3.30;;
12222;SDS011;6174;49.058;8.524;2022-07-29T00:06:37;3.73;;;3.43;;
12222;SDS011;6174;49.058;8.524;2022-07-29T00:09:04;3.87;;;3.47;;
12222;SDS011;6174;49.058;8.524;2022-07-29T00:11:31;3.67;;;3.37;;
12222;SDS011;6174;49.058;8.524;2022-07-29T00:13:58;5.33;;;3.70;;
12222;SDS011;6174;49.058;8.524;2022-07-29T00:16:25;4.03;;;3.63;;
12222;SDS011;6174;49.058;8.524;2022-07-29T00:18:52;4.30;;;3.90;;
12222;SDS011;6174;49.058;8.524;2022-07-29T00:21:19;3.60;;;3.30;;
12222;SDS011;6174;49.058;8.524;2022-07-29T00:23:47;3.90;;;3.70;;
12222;SDS011;6174;49.058;8.524;2022-07-29T00:26:14;4.00;;;3.70;;
12222;SDS011;6174;49.058;8.524;2022-07-29T00:28:40;4.10;;;3.80;;
12222;SDS011;6174;49.058;8.524;2022-07-29T00:31:07;3.60;;;3.33;;
12222;SDS011;6174;49.058;8.524;2022-07-29T00:33:34;4.20;;;3.73;;
12222;SDS011;6174;49.058;8.524;2022-07-29T00:36:01;3.90;;;3.60;;
12222;SDS011;6174;49.058;8.524;2022-07-29T00:38:27;4.00;;;3.70;;
12222;SDS011;6174;49.058;8.524;2022-07-29T00:40:55;4.97;;;4.00;;
12222;SDS011;6174;49.058;8.524;2022-07-29T00:43:22;3.93;;;3.63;;
12222;SDS011;6174;49.058;8.524;2022-07-29T00:45:48;4.00;;;3.67;;
12222;SDS011;6174;49.058;8.524;2022-07-29T00:48:15;3.63;;;3.33;;
12222;SDS011;6174;49.058;8.524;2022-07-29T00:50:42;4.40;;;3.50;;
12222;SDS011;6174;49.058;8.524;2022-07-29T00:53:09;3.80;;;3.50;;
12222;SDS011;6174;49.058;8.524;2022-07-29T00:55:38;4.00;;;3.60;;
12222;SDS011;6174;49.058;8.524;2022-07-29T00:58:06;3.90;;;3.60;;
12222;SDS011;6174;49.058;8.524;2022-07-29T01:00:33;4.77;;;3.73;;
12222;SDS011;6174;49.058;8.524;2022-07-29T01:03:00;3.70;;;3.30;;
12222;SDS011;6174;49.058;8.524;2022-07-29T01:05:27;3.90;;;3.60;;
12222;SDS011;6174;49.058;8.524;2022-07-29T01:07:54;4.33;;;3.43;;
12222;SDS011;6174;49.058;8.524;2022-07-29T01:10:23;4.10;;;3.43;;
12222;SDS011;6174;49.058;8.524;2022-07-29T01:12:52;3.80;;;3.40;;
12222;SDS011;6174;49.058;8.524;2022-07-29T01:15:24;3.80;;;3.50;;
12222;SDS011;6174;49.058;8.524;2022-07-29T01:17:54;3.97;;;3.60;;
12222;SDS011;6174;49.058;8.524;2022-07-29T01:20:29;4.10;;;3.70;;
12222;SDS011;6174;49.058;8.524;2022-07-29T01:23:10;4.00;;;3.70;;
12222;SDS011;6174;49.058;8.524;2022-07-29T01:26:05;4.20;;;3.80;;
12222;SDS011;6174;49.058;8.524;2022-07-29T01:28:56;3.60;;;3.30;;
12222;SDS011;6174;49.058;8.524;2022-07-29T01:31:31;3.47;;;3.20;;
12222;SDS011;6174;49.058;8.524;2022-07-29T01:34:05;3.70;;;3.40;;
12222;SDS011;6174;49.058;8.524;2022-07-29T01:36:38;3.50;;;3.20;;
12222;SDS011;6174;49.058;8.524;2022-07-29T01:39:16;3.80;;;3.50;;
12222;SDS011;6174;49.058;8.524;2022-07-29T01:41:48;5.30;;;4.00;;
12222;SDS011;6174;49.058;8.524;2022-07-29T01:44:24;3.93;;;3.60;;
12222;SDS011;6174;49.058;8.524;2022-07-29T01:46:58;4.57;;;3.50;;
12222;SDS011;6174;49.058;8.524;2022-07-29T01:49:28;3.80;;;3.50;;
12222;SDS011;6174;49.058;8.524;2022-07-29T01:52:00;3.87;;;3.53;;
12222;SDS011;6174;49.058;8.524;2022-07-29T01:54:32;4.07;;;3.77;;
12222;SDS011;6174;49.058;8.524;2022-07-29T01:57:03;3.87;;;3.57;;
12222;SDS011;6174;49.058;8.524;2022-07-29T01:59:34;3.87;;;3.57;;
12222;SDS011;6174;49.058;8.524;2022-07-29T02:02:02;3.90;;;3.60;;
12222;SDS011;6174;49.058;8.524;2022-07-29T02:04:30;4.10;;;3.80;;
12222;SDS011;6174;49.058;8.524;2022-07-29T02:07:01;4.30;;;3.90;;
12222;SDS011;6174;49.058;8.524;2022-07-29T02:09:31;4.30;;;3.83;;
12222;SDS011;6174;49.058;8.524;2022-07-29T02:12:00;4.07;;;3.70;;
12222;SDS011;6174;49.058;8.524;2022-07-29T02:14:30;4.20;;;3.90;;
12222;SDS011;6174;49.058;8.524;2022-07-29T02:17:00;3.90;;;3.60;;
12222;SDS011;6174;49.058;8.524;2022-07-29T02:19:29;4.13;;;3.70;;
12222;SDS011;6174;49.058;8.524;2022-07-29T02:21:58;3.83;;;3.50;;
12222;SDS011;6174;49.058;8.524;2022-07-29T02:24:26;4.40;;;3.67;;
12222;SDS011;6174;49.058;8.524;2022-07-29T02:26:55;3.70;;;3.40;;
12222;SDS011;6174;49.058;8.524;2022-07-29T02:29:25;4.10;;;3.70;;
12222;SDS011;6174;49.058;8.524;2022-07-29T02:31:53;4.07;;;3.50;;
12222;SDS011;6174;49.058;8.524;2022-07-29T02:34:23;3.93;;;3.63;;
12222;SDS011;6174;49.058;8.524;2022-07-29T02:36:50;3.97;;;3.67;;
12222;SDS011;6174;49.058;8.524;2022-07-29T02:39:18;4.20;;;3.90;;
12222;SDS011;6174;49.058;8.524;2022-07-29T02:41:47;4.17;;;3.70;;
12222;SDS011;6174;49.058;8.524;2022-07-29T02:44:15;4.00;;;3.70;;
12222;SDS011;6174;49.058;8.524;2022-07-29T02:46:45;4.20;;;3.80;;
12222;SDS011;6174;49.058;8.524;2022-07-29T02:49:17;4.20;;;3.83;;
12222;SDS011;6174;49.058;8.524;2022-07-29T02:51:56;4.10;;;3.80;;
12222;SDS011;6174;49.058;8.524;2022-07-29T02:54:29;4.40;;;4.00;;
12222;SDS011;6174;49.058;8.524;2022-07-29T02:57:00;4.87;;;3.60;;
12222;SDS011;6174;49.058;8.524;2022-07-29T02:59:37;3.67;;;3.37;;
12222;SDS011;6174;49.058;8.524;2022-07-29T03:02:08;4.17;;;3.80;;
12222;SDS011;6174;49.058;8.524;2022-07-29T03:04:37;4.20;;;3.80;;
12222;SDS011;6174;49.058;8.524;2022-07-29T03:07:07;4.23;;;3.93;;
12222;SDS011;6174;49.058;8.524;2022-07-29T03:09:35;4.17;;;3.77;;
12222;SDS011;6174;49.058;8.524;2022-07-29T03:12:03;3.97;;;3.67;;
12222;SDS011;6174;49.058;8.524;2022-07-29T03:14:30;4.40;;;3.77;;
12222;SDS011;6174;49.058;8.524;2022-07-29T03:16:58;4.00;;;3.60;;
12222;SDS011;6174;49.058;8.524;2022-07-29T03:19:25;4.47;;;4.07;;
12222;SDS011;6174;49.058;8.524;2022-07-29T03:21:53;4.50;;;4.00;;
12222;SDS011;6174;49.058;8.524;2022-07-29T03:24:31;4.20;;;3.80;;
12222;SDS011;6174;49.058;8.524;2022-07-29T03:26:59;4.13;;;3.83;;
12222;SDS011;6174;49.058;8.524;2022-07-29T03:29:26;4.17;;;3.87;;
12222;SDS011;6174;49.058;8.524;2022-07-29T03:31:54;4.10;;;3.80;;
12222;SDS011;6174;49.058;8.524;2022-07-29T03:34:21;4.17;;;3.77;;
12222;SDS011;6174;49.058;8.524;2022-07-29T03:36:48;4.87;;;4.10;;
12222;SDS011;6174;49.058;8.524;2022-07-29T03:39:15;4.97;;;4.23;;
12222;SDS011;6174;49.058;8.524;2022-07-29T03:41:48;5.93;;;3.90;;
12222;SDS011;6174;49.058;8.524;2022-07-29T03:44:18;4.27;;;3.77;;
12222;SDS011;6174;49.058;8.524;2022-07-29T03:46:47;4.30;;;4.00;;
12222;SDS011;6174;49.058;8.524;2022-07-29T03:49:16;4.03;;;3.67;;
12222;SDS011;6174;49.058;8.524;2022-07-29T03:51:45;4.03;;;3.60;;
12222;SDS011;6174;49.058;8.524;2022-07-29T03:54:12;4.50;;;4.10;;
12222;SDS011;6174;49.058;8.524;2022-07-29T03:56:40;4.00;;;3.60;;
12222;SDS011;6174;49.058;8.524;2022-07-29T03:59:12;4.40;;;4.03;;
12222;SDS011;6174;49.058;8.524;2022-07-29T04:01:39;7.00;;;4.40;;
12222;SDS011;6174;49.058;8.524;2022-07-29T04:04:07;6.07;;;4.50;;
12222;SDS011;6174;49.058;8.524;2022-07-29T04:06:38;4.97;;;4.57;;
12222;SDS011;6174;49.058;8.524;2022-07-29T04:09:06;4.70;;;4.30;;
12222;SDS011;6174;49.058;8.524;2022-07-29T04:11:33;5.50;;;4.03;;
12222;SDS011;6174;49.058;8.524;2022-07-29T04:14:00;4.43;;;4.03;;
12222;SDS011;6174;49.058;8.524;2022-07-29T04:16:28;4.33;;;3.90;;
12222;SDS011;6174;49.058;8.524;2022-07-29T04:18:55;4.43;;;3.90;;
12222;SDS011;6174;49.058;8.524;2022-07-29T04:21:22;4.40;;;4.00;;
12222;SDS011;6174;49.058;8.524;2022-07-29T04:23:49;4.10;;;3.70;;
12222;SDS011;6174;49.058;8.524;2022-07-29T04:26:16;5.07;;;3.83;;
12222;SDS011;6174;49.058;8.524;2022-07-29T04:28:43;5.47;;;4.20;;
12222;SDS011;6174;49.058;8.524;2022-07-29T04:31:10;4.43;;;4.03;;
12222;SDS011;6174;49.058;8.524;2022-07-29T04:33:39;4.00;;;3.70;;
12222;SDS011;6174;49.058;8.524;2022-07-29T04:36:06;4.10;;;3.80;;
12222;SDS011;6174;49.058;8.524;2022-07-29T04:38:33;4.83;;;3.90;;
12222;SDS011;6174;49.058;8.524;2022-07-29T04:41:00;4.00;;;3.63;;
12222;SDS011;6174;49.058;8.524;2022-07-29T04:43:26;5.03;;;4.13;;
12222;SDS011;6174;49.058;8.524;2022-07-29T04:45:53;4.23;;;3.80;;
12222;SDS011;6174;49.058;8.524;2022-07-29T04:48:20;6.40;;;3.93;;
12222;SDS011;6174;49.058;8.524;2022-07-29T04:50:48;4.93;;;3.90;;
12222;SDS011;6174;49.058;8.524;2022-07-29T04:53:15;4.73;;;4.30;;
12222;SDS011;6174;49.058;8.524;2022-07-29T04:55:42;4.47;;;4.07;;
12222;SDS011;6174;49.058;8.524;2022-07-29T04:58:09;4.70;;;4.23;;
12222;SDS011;6174;49.058;8.524;2022-07-29T05:00:36;4.33;;;3.80;;
12222;SDS011;6174;49.058;8.524;2022-07-29T05:03:03;5.03;;;4.50;;
12222;SDS011;6174;49.058;8.524;2022-07-29T05:05:30;4.30;;;3.90;;
12222;SDS011;6174;49.058;8.524;2022-07-29T05:07:58;4.47;;;4.07;;
12222;SDS011;6174;49.058;8.524;2022-07-29T05:10:25;4.70;;;4.30;;
12222;SDS011;6174;49.058;8.524;2022-07-29T05:12:52;4.87;;;4.43;;
12222;SDS011;6174;49.058;8.524;2022-07-29T05:15:19;5.10;;;4.53;;
12222;SDS011;6174;49.058;8.524;2022-07-29T05:17:45;4.60;;;4.20;;
12222;SDS011;6174;49.058;8.524;2022-07-29T05:20:12;4.67;;;4.20;;
12222;SDS011;6174;49.058;8.524;2022-07-29T05:22:39;6.93;;;4.73;;
12222;SDS011;6174;49.058;8.524;2022-07-29T05:25:07;7.77;;;4.13;;
12222;SDS011;6174;49.058;8.524;2022-07-29T05:27:35;6.93;;;4.83;;
12222;SDS011;6174;49.058;8.524;2022-07-29T05:30:02;6.00;;;4.57;;
12222;SDS011;6174;49.058;8.524;2022-07-29T05:32:29;7.67;;;4.47;;
12222;SDS011;6174;49.058;8.524;2022-07-29T05:34:56;5.73;;;4.77;;
12222;SDS011;6174;49.058;8.524;2022-07-29T05:37:23;4.77;;;4.30;;
12222;SDS011;6174;49.058;8.524;2022-07-29T05:39:50;6.63;;;5.10;;
12222;SDS011;6174;49.058;8.524;2022-07-29T05:42:18;5.23;;;4.50;;
12222;SDS011;6174;49.058;8.524;2022-07-29T05:44:45;5.07;;;4.30;;
12222;SDS011;6174;49.058;8.524;2022-07-29T05:47:12;5.13;;;4.57;;
12222;SDS011;6174;49.058;8.524;2022-07-29T05:49:39;7.37;;;5.10;;
12222;SDS011;6174;49.058;8.524;2022-07-29T05:52:06;5.03;;;4.53;;
12222;SDS011;6174;49.058;8.524;2022-07-29T05:54:32;6.00;;;4.77;;
12222;SDS011;6174;49.058;8.524;2022-07-29T05:57:00;5.30;;;4.80;;
12222;SDS011;6174;49.058;8.524;2022-07-29T05:59:28;5.17;;;4.67;;
12222;SDS011;6174;49.058;8.524;2022-07-29T06:01:55;6.40;;;5.20;;
12222;SDS011;6174;49.058;8.524;2022-07-29T06:04:22;7.50;;;5.30;;
12222;SDS011;6174;49.058;8.524;2022-07-29T06:06:49;6.13;;;5.10;;
12222;SDS011;6174;49.058;8.524;2022-07-29T06:09:15;5.37;;;4.87;;
12222;SDS011;6174;49.058;8.524;2022-07-29T06:11:42;5.93;;;5.33;;
12222;SDS011;6174;49.058;8.524;2022-07-29T06:14:09;5.70;;;5.20;;
12222;SDS011;6174;49.058;8.524;2022-07-29T06:16:37;5.57;;;5.13;;
12222;SDS011;6174;49.058;8.524;2022-07-29T06:19:04;5.33;;;4.87;;
12222;SDS011;6174;49.058;8.524;2022-07-29T06:21:31;6.40;;;5.03;;
12222;SDS011;6174;49.058;8.524;2022-07-29T06:23:58;6.30;;;5.40;;
12222;SDS011;6174;49.058;8.524;2022-07-29T06:26:25;5.30;;;4.80;;
12222;SDS011;6174;49.058;8.524;2022-07-29T06:28:52;5.93;;;5.40;;
12222;SDS011;6174;49.058;8.524;2022-07-29T06:31:18;5.80;;;4.67;;
12222;SDS011;6174;49.058;8.524;2022-07-29T06:33:47;6.73;;;5.00;;
12222;SDS011;6174;49.058;8.524;2022-07-29T06:36:13;4.80;;;4.40;;
12222;SDS011;6174;49.058;8.524;2022-07-29T06:38:40;5.77;;;5.13;;
12222;SDS011;6174;49.058;8.524;2022-07-29T06:41:07;7.37;;;4.70;;
12222;SDS011;6174;49.058;8.524;2022-07-29T06:43:38;5.40;;;4.90;;
12222;SDS011;6174;49.058;8.524;2022-07-29T06:46:06;6.50;;;4.47;;
12222;SDS011;6174;49.058;8.524;2022-07-29T06:48:34;5.23;;;4.57;;
12222;SDS011;6174;49.058;8.524;2022-07-29T06:51:03;4.70;;;4.30;;
12222;SDS011;6174;49.058;8.524;2022-07-29T06:53:31;7.60;;;4.40;;
12222;SDS011;6174;49.058;8.524;2022-07-29T06:55:59;5.40;;;4.53;;
12222;SDS011;6174;49.058;8.524;2022-07-29T06:58:27;5.70;;;4.50;;
12222;SDS011;6174;49.058;8.524;2022-07-29T07:00:55;8.80;;;4.60;;
12222;SDS011;6174;49.058;8.524;2022-07-29T07:03:23;5.23;;;4.50;;
12222;SDS011;6174;49.058;8.524;2022-07-29T07:05:51;5.93;;;4.60;;
12222;SDS011;6174;49.058;8.524;2022-07-29T07:08:20;5.93;;;4.43;;
12222;SDS011;6174;49.058;8.524;2022-07-29T07:10:48;6.00;;;4.50;;
12222;SDS011;6174;49.058;8.524;2022-07-29T07:13:15;5.87;;;4.57;;
12222;SDS011;6174;49.058;8.524;2022-07-29T07:15:43;6.57;;;4.63;;
12222;SDS011;6174;49.058;8.524;2022-07-29T07:18:10;6.10;;;4.63;;
12222;SDS011;6174;49.058;8.524;2022-07-29T07:20:37;6.93;;;4.40;;
12222;SDS011;6174;49.058;8.524;2022-07-29T07:23:04;7.40;;;4.77;;
12222;SDS011;6174;49.058;8.524;2022-07-29T07:25:32;5.97;;;5.30;;
12222;SDS011;6174;49.058;8.524;2022-07-29T07:27:59;5.57;;;5.00;;
12222;SDS011;6174;49.058;8.524;2022-07-29T07:30:26;5.13;;;4.17;;
12222;SDS011;6174;49.058;8.524;2022-07-29T07:32:53;5.43;;;4.50;;
12222;SDS011;6174;49.058;8.524;2022-07-29T07:35:21;8.50;;;4.90;;
12222;SDS011;6174;49.058;8.524;2022-07-29T07:37:48;5.17;;;4.63;;
12222;SDS011;6174;49.058;8.524;2022-07-29T07:40:14;6.27;;;5.10;;
12222;SDS011;6174;49.058;8.524;2022-07-29T07:42:43;6.23;;;5.23;;
12222;SDS011;6174;49.058;8.524;2022-07-29T07:45:10;5.83;;;4.50;;
12222;SDS011;6174;49.058;8.524;2022-07-29T07:47:37;6.63;;;4.80;;
12222;SDS011;6174;49.058;8.524;2022-07-29T07:50:05;5.10;;;4.60;;
12222;SDS011;6174;49.058;8.524;2022-07-29T07:52:33;7.53;;;4.70;;
12222;SDS011;6174;49.058;8.524;2022-07-29T07:55:00;6.80;;;4.53;;
12222;SDS011;6174;49.058;8.524;2022-07-29T07:57:27;6.43;;;4.83;;
12222;SDS011;6174;49.058;8.524;2022-07-29T08:00:07;4.87;;;4.40;;
12222;SDS011;6174;49.058;8.524;2022-07-29T08:02:43;6.47;;;4.87;;
12222;SDS011;6174;49.058;8.524;2022-07-29T08:05:11;4.97;;;4.50;;
12222;SDS011;6174;49.058;8.524;2022-07-29T08:07:41;5.50;;;4.67;;
12222;SDS011;6174;49.058;8.524;2022-07-29T08:10:09;4.60;;;4.10;;
12222;SDS011;6174;49.058;8.524;2022-07-29T08:12:35;4.77;;;4.37;;
12222;SDS011;6174;49.058;8.524;2022-07-29T08:15:04;5.47;;;4.53;;
12222;SDS011;6174;49.058;8.524;2022-07-29T08:17:32;4.87;;;4.40;;
12222;SDS011;6174;49.058;8.524;2022-07-29T08:19:59;4.40;;;4.00;;
12222;SDS011;6174;49.058;8.524;2022-07-29T08:22:26;6.22;;;4.03;;
12222;SDS011;6174;49.058;8.524;2022-07-29T08:24:53;4.53;;;4.13;;
12222;SDS011;6174;49.058;8.524;2022-07-29T08:27:21;5.67;;;4.10;;
12222;SDS011;6174;49.058;8.524;2022-07-29T08:29:48;5.77;;;4.20;;
12222;SDS011;6174;49.058;8.524;2022-07-29T08:32:16;4.68;;;3.70;;
12222;SDS011;6174;49.058;8.524;2022-07-29T08:34:43;5.45;;;3.78;;
12222;SDS011;6174;49.058;8.524;2022-07-29T08:37:11;5.68;;;3.95;;
12222;SDS011;6174;49.058;8.524;2022-07-29T08:39:38;3.95;;;3.50;;
12222;SDS011;6174;49.058;8.524;2022-07-29T08:42:05;4.25;;;3.63;;
12222;SDS011;6174;49.058;8.524;2022-07-29T08:44:32;4.35;;;3.58;;
12222;SDS011;6174;49.058;8.524;2022-07-29T08:47:00;3.97;;;3.63;;
12222;SDS011;6174;49.058;8.524;2022-07-29T08:49:29;6.07;;;3.30;;
12222;SDS011;6174;49.058;8.524;2022-07-29T08:51:56;5.53;;;3.83;;
12222;SDS011;6174;49.058;8.524;2022-07-29T08:54:24;5.07;;;3.60;;
12222;SDS011;6174;49.058;8.524;2022-07-29T08:56:51;3.33;;;3.05;;
12222;SDS011;6174;49.058;8.524;2022-07-29T08:59:20;4.32;;;3.47;;
12222;SDS011;6174;49.058;8.524;2022-07-29T09:01:48;4.10;;;3.38;;
12222;SDS011;6174;49.058;8.524;2022-07-29T09:04:18;3.47;;;2.88;;
12222;SDS011;6174;49.058;8.524;2022-07-29T09:06:48;8.43;;;3.75;;
12222;SDS011;6174;49.058;8.524;2022-07-29T09:09:17;4.53;;;3.20;;
12222;SDS011;6174;49.058;8.524;2022-07-29T09:11:44;5.47;;;3.05;;
12222;SDS011;6174;49.058;8.524;2022-07-29T09:14:12;4.70;;;3.00;;
12222;SDS011;6174;49.058;8.524;2022-07-29T09:16:46;5.57;;;3.03;;
12222;SDS011;6174;49.058;8.524;2022-07-29T09:19:24;4.25;;;3.00;;
12222;SDS011;6174;49.058;8.524;2022-07-29T09:21:54;4.10;;;3.03;;
12222;SDS011;6174;49.058;8.524;2022-07-29T09:24:26;3.08;;;2.80;;
12222;SDS011;6174;49.058;8.524;2022-07-29T09:27:04;4.32;;;2.72;;
12222;SDS011;6174;49.058;8.524;2022-07-29T09:29:35;3.83;;;2.97;;
12222;SDS011;6174;49.058;8.524;2022-07-29T09:32:05;3.67;;;2.70;;
12222;SDS011;6174;49.058;8.524;2022-07-29T09:34:35;5.50;;;3.03;;
12222;SDS011;6174;49.058;8.524;2022-07-29T09:37:03;5.07;;;2.97;;
12222;SDS011;6174;49.058;8.524;2022-07-29T09:39:31;4.05;;;3.15;;
12222;SDS011;6174;49.058;8.524;2022-07-29T09:42:01;5.25;;;2.97;;
12222;SDS011;6174;49.058;8.524;2022-07-29T09:44:40;3.83;;;3.30;;
12222;SDS011;6174;49.058;8.524;2022-07-29T09:47:08;4.32;;;3.03;;
12222;SDS011;6174;49.058;8.524;2022-07-29T09:49:35;4.35;;;2.90;;
12222;SDS011;6174;49.058;8.524;2022-07-29T09:52:19;3.95;;;2.88;;
12222;SDS011;6174;49.058;8.524;2022-07-29T09:54:46;5.28;;;3.17;;
12222;SDS011;6174;49.058;8.524;2022-07-29T09:57:23;3.65;;;2.80;;
12222;SDS011;6174;49.058;8.524;2022-07-29T09:59:57;3.65;;;2.75;;
12222;SDS011;6174;49.058;8.524;2022-07-29T10:02:30;5.00;;;2.78;;
12222;SDS011;6174;49.058;8.524;2022-07-29T10:04:58;4.07;;;2.67;;
12222;SDS011;6174;49.058;8.524;2022-07-29T10:07:27;3.45;;;2.72;;
12222;SDS011;6174;49.058;8.524;2022-07-29T10:10:09;6.63;;;2.80;;
12222;SDS011;6174;49.058;8.524;2022-07-29T10:12:46;2.85;;;2.63;;
12222;SDS011;6174;49.058;8.524;2022-07-29T10:15:15;2.80;;;2.47;;
12222;SDS011;6174;49.058;8.524;2022-07-29T10:17:42;4.03;;;2.58;;
12222;SDS011;6174;49.058;8.524;2022-07-29T10:20:10;4.03;;;2.78;;
12222;SDS011;6174;49.058;8.524;2022-07-29T10:22:38;3.33;;;2.65;;
12222;SDS011;6174;49.058;8.524;2022-07-29T10:25:06;6.97;;;3.28;;
12222;SDS011;6174;49.058;8.524;2022-07-29T10:27:34;4.18;;;3.22;;
12222;SDS011;6174;49.058;8.524;2022-07-29T10:30:02;3.90;;;2.80;;
12222;SDS011;6174;49.058;8.524;2022-07-29T10:32:34;3.63;;;3.00;;
12222;SDS011;6174;49.058;8.524;2022-07-29T10:35:22;3.95;;;2.53;;
12222;SDS011;6174;49.058;8.524;2022-07-29T10:38:07;4.13;;;2.60;;
12222;SDS011;6174;49.058;8.524;2022-07-29T10:40:49;4.72;;;2.55;;
12222;SDS011;6174;49.058;8.524;2022-07-29T10:43:50;4.75;;;2.88;;
12222;SDS011;6174;49.058;8.524;2022-07-29T10:46:19;4.20;;;2.72;;
12222;SDS011;6174;49.058;8.524;2022-07-29T10:49:05;4.45;;;2.72;;
12222;SDS011;6174;49.058;8.524;2022-07-29T10:54:39;9.02;;;3.20;;
12222;SDS011;6174;49.058;8.524;2022-07-29T10:57:24;3.55;;;2.85;;
12222;SDS011;6174;49.058;8.524;2022-07-29T11:02:51;6.00;;;3.00;;
12222;SDS011;6174;49.058;8.524;2022-07-29T11:05:20;3.47;;;2.78;;
12222;SDS011;6174;49.058;8.524;2022-07-29T11:10:46;5.45;;;2.95;;
12222;SDS011;6174;49.058;8.524;2022-07-29T11:16:26;5.50;;;2.67;;
12222;SDS011;6174;49.058;8.524;2022-07-29T11:19:27;3.90;;;2.80;;
12222;SDS011;6174;49.058;8.524;2022-07-29T11:21:54;4.95;;;2.90;;
12222;SDS011;6174;49.058;8.524;2022-07-29T11:24:22;3.17;;;2.88;;
12222;SDS011;6174;49.058;8.524;2022-07-29T11:27:07;3.20;;;2.90;;
12222;SDS011;6174;49.058;8.524;2022-07-29T11:29:35;3.17;;;2.92;;
12222;SDS011;6174;49.058;8.524;2022-07-29T11:32:08;4.65;;;3.00;;
12222;SDS011;6174;49.058;8.524;2022-07-29T11:34:36;3.30;;;2.97;;
12222;SDS011;6174;49.058;8.524;2022-07-29T11:37:15;4.32;;;3.00;;
12222;SDS011;6174;49.058;8.524;2022-07-29T11:42:46;4.50;;;3.17;;
12222;SDS011;6174;49.058;8.524;2022-07-29T11:45:14;3.63;;;3.22;;
12222;SDS011;6174;49.058;8.524;2022-07-29T11:47:49;3.50;;;3.20;;
12222;SDS011;6174;49.058;8.524;2022-07-29T11:50:26;4.55;;;3.38;;
12222;SDS011;6174;49.058;8.524;2022-07-29T11:52:55;4.25;;;3.22;;
12222;SDS011;6174;49.058;8.524;2022-07-29T11:55:23;4.45;;;3.30;;
12222;SDS011;6174;49.058;8.524;2022-07-29T11:57:52;4.53;;;3.47;;
12222;SDS011;6174;49.058;8.524;2022-07-29T12:00:22;4.40;;;3.05;;
12222;SDS011;6174;49.058;8.524;2022-07-29T12:02:51;4.93;;;3.30;;
12222;SDS011;6174;49.058;8.524;2022-07-29T12:05:18;3.42;;;3.13;;
12222;SDS011;6174;49.058;8.524;2022-07-29T12:07:45;4.05;;;3.53;;
12222;SDS011;6174;49.058;8.524;2022-07-29T12:10:13;4.03;;;3.28;;
12222;SDS011;6174;49.058;8.524;2022-07-29T12:12:40;3.55;;;3.13;;
12222;SDS011;6174;49.058;8.524;2022-07-29T12:15:12;5.40;;;3.17;;
12222;SDS011;6174;49.058;8.524;2022-07-29T12:17:42;3.08;;;2.67;;
12222;SDS011;6174;49.058;8.524;2022-07-29T12:20:09;3.75;;;3.08;;
12222;SDS011;6174;49.058;8.524;2022-07-29T12:22:38;8.73;;;2.88;;
12222;SDS011;6174;49.058;8.524;2022-07-29T12:25:09;6.25;;;3.00;;
12222;SDS011;6174;49.058;8.524;2022-07-29T12:27:40;3.10;;;2.75;;
12222;SDS011;6174;49.058;8.524;2022-07-29T12:30:09;4.45;;;3.00;;
12222;SDS011;6174;49.058;8.524;2022-07-29T12:32:39;4.57;;;3.10;;
12222;SDS011;6174;49.058;8.524;2022-07-29T12:35:08;6.32;;;3.15;;
12222;SDS011;6174;49.058;8.524;2022-07-29T12:37:38;5.07;;;3.28;;
12222;SDS011;6174;49.058;8.524;2022-07-29T12:40:07;6.07;;;3.25;;
12222;SDS011;6174;49.058;8.524;2022-07-29T12:42:35;5.15;;;3.40;;
12222;SDS011;6174;49.058;8.524;2022-07-29T12:45:03;5.18;;;3.22;;
12222;SDS011;6174;49.058;8.524;2022-07-29T12:47:31;2.85;;;2.65;;
12222;SDS011;6174;49.058;8.524;2022-07-29T12:52:44;2.83;;;2.63;;
12222;SDS011;6174;49.058;8.524;2022-07-29T12:55:12;2.70;;;2.50;;
12222;SDS011;6174;49.058;8.524;2022-07-29T12:57:49;2.83;;;2.65;;
12222;SDS011;6174;49.058;8.524;2022-07-29T13:00:21;3.10;;;2.60;;
12222;SDS011;6174;49.058;8.524;2022-07-29T13:02:54;3.38;;;3.08;;
12222;SDS011;6174;49.058;8.524;2022-07-29T13:05:23;2.50;;;2.30;;
12222;SDS011;6174;49.058;8.524;2022-07-29T13:07:50;4.80;;;2.80;;
12222;SDS011;6174;49.058;8.524;2022-07-29T13:10:17;2.72;;;2.22;;
12222;SDS011;6174;49.058;8.524;2022-07-29T13:13:01;3.50;;;2.20;;
12222;SDS011;6174;49.058;8.524;2022-07-29T13:15:29;2.42;;;2.10;;
12222;SDS011;6174;49.058;8.524;2022-07-29T13:17:55;2.85;;;2.17;;
12222;SDS011;6174;49.058;8.524;2022-07-29T13:20:25;3.47;;;2.20;;
12222;SDS011;6174;49.058;8.524;2022-07-29T13:22:54;2.22;;;1.90;;
12222;SDS011;6174;49.058;8.524;2022-07-29T13:25:25;3.42;;;2.20;;
12222;SDS011;6174;49.058;8.524;2022-07-29T13:27:55;4.15;;;2.33;;
12222;SDS011;6174;49.058;8.524;2022-07-29T13:30:22;3.75;;;2.10;;
12222;SDS011;6174;49.058;8.524;2022-07-29T13:32:50;4.20;;;2.25;;
12222;SDS011;6174;49.058;8.524;2022-07-29T13:35:20;3.83;;;2.42;;
12222;SDS011;6174;49.058;8.524;2022-07-29T13:37:48;4.60;;;2.40;;
12222;SDS011;6174;49.058;8.524;2022-07-29T13:40:15;3.13;;;2.10;;
12222;SDS011;6174;49.058;8.524;2022-07-29T13:42:42;3.78;;;2.17;;
12222;SDS011;6174;49.058;8.524;2022-07-29T13:45:09;3.10;;;2.10;;
12222;SDS011;6174;49.058;8.524;2022-07-29T13:47:37;3.05;;;1.90;;
12222;SDS011;6174;49.058;8.524;2022-07-29T13:50:05;3.83;;;2.10;;
12222;SDS011;6174;49.058;8.524;2022-07-29T13:52:33;2.22;;;2.00;;
12222;SDS011;6174;49.058;8.524;2022-07-29T13:55:02;2.08;;;1.90;;
12222;SDS011;6174;49.058;8.524;2022-07-29T13:57:29;2.08;;;1.88;;
12222;SDS011;6174;49.058;8.524;2022-07-29T13:59:56;4.70;;;2.00;;
12222;SDS011;6174;49.058;8.524;2022-07-29T14:02:23;2.40;;;1.88;;
12222;SDS011;6174;49.058;8.524;2022-07-29T14:04:50;3.10;;;1.90;;
12222;SDS011;6174;49.058;8.524;2022-07-29T14:07:16;4.57;;;2.30;;
12222;SDS011;6174;49.058;8.524;2022-07-29T14:09:43;2.45;;;1.70;;
12222;SDS011;6174;49.058;8.524;2022-07-29T14:12:11;4.93;;;2.58;;
12222;SDS011;6174;49.058;8.524;2022-07-29T14:14:38;4.78;;;1.70;;
12222;SDS011;6174;49.058;8.524;2022-07-29T14:17:06;3.95;;;1.90;;
12222;SDS011;6174;49.058;8.524;2022-07-29T14:19:33;3.22;;;1.95;;
12222;SDS011;6174;49.058;8.524;2022-07-29T14:22:02;2.33;;;1.70;;
12222;SDS011;6174;49.058;8.524;2022-07-29T14:24:30;2.95;;;1.67;;
12222;SDS011;6174;49.058;8.524;2022-07-29T14:26:57;1.92;;;1.60;;
12222;SDS011;6174;49.058;8.524;2022-07-29T14:29:26;2.60;;;2.00;;
12222;SDS011;6174;49.058;8.524;2022-07-29T14:31:52;2.95;;;1.77;;
12222;SDS011;6174;49.058;8.524;2022-07-29T14:34:19;2.83;;;1.70;;
12222;SDS011;6174;49.058;8.524;2022-07-29T14:36:46;3.75;;;1.75;;
12222;SDS011;6174;49.058;8.524;2022-07-29T14:39:13;3.17;;;1.70;;
12222;SDS011;6174;49.058;8.524;2022-07-29T14:41:41;3.75;;;1.80;;
12222;SDS011;6174;49.058;8.524;2022-07-29T14:44:08;4.38;;;1.98;;
12222;SDS011;6174;49.058;8.524;2022-07-29T14:46:37;4.53;;;1.95;;
12222;SDS011;6174;49.058;8.524;2022-07-29T14:49:04;2.72;;;1.70;;
12222;SDS011;6174;49.058;8.524;2022-07-29T14:51:31;1.83;;;1.70;;
12222;SDS011;6174;49.058;8.524;2022-07-29T14:53:58;2.08;;;1.80;;
12222;SDS011;6174;49.058;8.524;2022-07-29T14:56:25;4.22;;;1.92;;
12222;SDS011;6174;49.058;8.524;2022-07-29T14:58:54;3.15;;;1.70;;
12222;SDS011;6174;49.058;8.524;2022-07-29T15:01:21;3.97;;;1.70;;
12222;SDS011;6174;49.058;8.524;2022-07-29T15:03:49;5.88;;;2.00;;
12222;SDS011;6174;49.058;8.524;2022-07-29T15:06:16;2.97;;;1.98;;
12222;SDS011;6174;49.058;8.524;2022-07-29T15:08:43;4.75;;;1.90;;
12222;SDS011;6174;49.058;8.524;2022-07-29T15:11:10;4.95;;;2.17;;
12222;SDS011;6174;49.058;8.524;2022-07-29T15:13:37;2.45;;;1.88;;
12222;SDS011;6174;49.058;8.524;2022-07-29T15:16:04;3.15;;;1.90;;
12222;SDS011;6174;49.058;8.524;2022-07-29T15:18:31;2.00;;;1.67;;
12222;SDS011;6174;49.058;8.524;2022-07-29T15:20:59;3.33;;;1.80;;
12222;SDS011;6174;49.058;8.524;2022-07-29T15:23:27;3.25;;;1.88;;
12222;SDS011;6174;49.058;8.524;2022-07-29T15:25:54;1.88;;;1.63;;
12222;SDS011;6174;49.058;8.524;2022-07-29T15:28:20;2.80;;;1.90;;
12222;SDS011;6174;49.058;8.524;2022-07-29T15:30:47;2.08;;;1.70;;